createdAt,value
2023-04-12T00:00:48.436Z,94.46
2023-04-12T00:03:21.365Z,94.57
2023-04-12T00:05:48.763Z,94.59
2023-04-12T00:08:16.715Z,94.70
2023-04-12T00:10:43.574Z,94.75
2023-04-12T00:13:10.281Z,94.71
2023-04-12T00:15:37.045Z,94.50
2023-04-12T00:18:03.844Z,95.17
2023-04-12T00:20:30.651Z,94.93
2023-04-12T00:22:57.765Z,95.04
2023-04-12T00:25:24.633Z,95.25
2023-04-12T00:27:51.399Z,95.18
2023-04-12T00:30:18.042Z,95.00
2023-04-12T00:32:44.851Z,95.43
2023-04-12T00:35:11.359Z,95.50
2023-04-12T00:37:38.761Z,95.29
2023-04-12T00:40:09.200Z,95.12
2023-04-12T00:42:38.972Z,95.25
2023-04-12T00:45:06.963Z,95.52
2023-04-12T00:47:35.758Z,95.59
2023-04-12T00:50:04.355Z,95.81
2023-04-12T00:52:34.228Z,95.45
2023-04-12T00:55:04.722Z,95.55
2023-04-12T00:57:37.022Z,95.45
2023-04-12T01:00:10.340Z,95.33
2023-04-12T01:02:39.485Z,95.52
2023-04-12T01:05:07.619Z,95.32
2023-04-12T01:07:56.122Z,95.50
2023-04-12T01:10:35.041Z,95.11
2023-04-12T01:13:11.317Z,95.17
2023-04-12T01:15:41.745Z,95.55
2023-04-12T01:18:13.662Z,95.20
2023-04-12T01:20:50.796Z,95.05
2023-04-12T01:23:39.822Z,95.48
2023-04-12T01:26:06.393Z,95.22
2023-04-12T01:28:34.501Z,95.23
2023-04-12T01:31:04.786Z,95.38
2023-04-12T01:33:31.832Z,95.33
2023-04-12T01:35:59.782Z,95.11
2023-04-12T01:38:27.901Z,94.88
2023-04-12T01:40:55.269Z,94.64
2023-04-12T01:43:22.433Z,95.01
2023-04-12T01:45:49.130Z,95.33
2023-04-12T01:48:15.915Z,95.21
2023-04-12T01:51:05.469Z,95.37
2023-04-12T01:53:56.268Z,95.18
2023-04-12T01:56:23.684Z,95.20
2023-04-12T01:58:51.842Z,95.52
2023-04-12T02:01:19.176Z,96.20
2023-04-12T02:03:46.348Z,96.07
2023-04-12T02:06:13.789Z,96.52
2023-04-12T02:08:40.426Z,96.25
2023-04-12T02:11:10.858Z,96.54
2023-04-12T02:13:37.503Z,96.49
2023-04-12T02:16:05.692Z,96.75
2023-04-12T02:18:32.204Z,97.21
2023-04-12T02:20:58.742Z,97.21
2023-04-12T02:23:26.344Z,97.31
2023-04-12T02:25:52.836Z,97.03
2023-04-12T02:28:19.316Z,97.12
2023-04-12T02:30:46.560Z,97.55
2023-04-12T02:33:13.300Z,97.77
2023-04-12T02:35:39.886Z,97.91
2023-04-12T02:38:08.282Z,97.79
2023-04-12T02:40:38.785Z,97.69
2023-04-12T02:43:05.263Z,97.77
2023-04-12T02:45:31.806Z,97.80
2023-04-12T02:47:58.313Z,97.78
2023-04-12T02:50:24.941Z,97.65
2023-04-12T02:52:51.560Z,97.86
2023-04-12T02:55:18.056Z,98.07
2023-04-12T02:57:45.934Z,97.96
2023-04-12T03:00:13.275Z,97.83
2023-04-12T03:02:40.145Z,97.72
2023-04-12T03:05:08.720Z,97.79
2023-04-12T03:07:36.092Z,97.89
2023-04-12T03:10:05.165Z,97.69
2023-04-12T03:12:31.635Z,97.63
2023-04-12T03:14:58.125Z,97.88
2023-04-12T03:17:24.615Z,97.92
2023-04-12T03:19:51.253Z,97.68
2023-04-12T03:22:17.826Z,97.68
2023-04-12T03:24:45.948Z,97.78
2023-04-12T03:27:12.505Z,97.76
2023-04-12T03:29:39.023Z,97.92
2023-04-12T03:32:05.510Z,97.84
2023-04-12T03:34:34.649Z,97.90
2023-04-12T03:37:02.155Z,97.86
2023-04-12T03:39:29.222Z,97.80
2023-04-12T03:41:55.944Z,98.13
2023-04-12T03:44:22.624Z,97.93
2023-04-12T03:46:49.331Z,98.04
2023-04-12T03:49:16.750Z,98.07
2023-04-12T03:51:43.758Z,98.10
2023-04-12T03:54:11.625Z,98.24
2023-04-12T03:56:38.622Z,98.01
2023-04-12T03:59:07.742Z,98.01
2023-04-12T04:01:35.640Z,97.84
2023-04-12T04:04:03.446Z,98.16
2023-04-12T04:06:30.457Z,97.74
2023-04-12T04:08:57.799Z,98.22
2023-04-12T04:11:25.454Z,98.03
2023-04-12T04:13:51.982Z,98.23
2023-04-12T04:16:18.586Z,97.97
2023-04-12T04:18:45.183Z,98.03
2023-04-12T04:21:11.683Z,98.57
2023-04-12T04:23:44.843Z,98.84
2023-04-12T04:26:11.882Z,98.72
2023-04-12T04:28:39.366Z,98.53
2023-04-12T04:31:06.494Z,98.94
2023-04-12T04:33:33.698Z,98.77
2023-04-12T04:36:00.997Z,98.41
2023-04-12T04:38:28.213Z,97.82
2023-04-12T04:40:55.197Z,98.09
2023-04-12T04:43:22.048Z,98.20
2023-04-12T04:45:49.499Z,97.70
2023-04-12T04:48:16.464Z,97.93
2023-04-12T04:50:43.754Z,97.98
2023-04-12T04:53:10.509Z,97.66
2023-04-12T04:55:37.135Z,97.54
2023-04-12T04:58:03.699Z,97.53
2023-04-12T05:00:30.487Z,97.51
2023-04-12T05:02:57.217Z,97.48
2023-04-12T05:05:24.011Z,97.43
2023-04-12T05:07:50.530Z,97.00
2023-04-12T05:10:17.203Z,96.63
2023-04-12T05:12:43.712Z,96.64
2023-04-12T05:15:12.296Z,96.32
2023-04-12T05:17:39.065Z,96.09
2023-04-12T05:20:07.931Z,95.70
2023-04-12T05:22:35.010Z,95.06
2023-04-12T05:25:02.170Z,94.79
2023-04-12T05:27:30.147Z,94.71
2023-04-12T05:29:57.374Z,94.05
2023-04-12T05:32:27.133Z,92.71
2023-04-12T05:34:53.677Z,92.76
2023-04-12T05:37:20.165Z,92.93
2023-04-12T05:39:46.733Z,93.25
2023-04-12T05:42:13.274Z,92.30
2023-04-12T05:44:39.868Z,90.83
2023-04-12T05:47:06.409Z,91.06
2023-04-12T05:49:33.029Z,91.25
2023-04-12T05:51:59.573Z,91.41
2023-04-12T05:54:26.163Z,91.46
2023-04-12T05:56:54.395Z,91.73
2023-04-12T05:59:21.701Z,90.50
2023-04-12T06:01:48.442Z,91.07
2023-04-12T06:04:15.588Z,90.77
2023-04-12T06:06:43.587Z,91.12
2023-04-12T06:09:10.572Z,91.16
2023-04-12T06:11:39.186Z,91.42
2023-04-12T06:14:06.215Z,91.60
2023-04-12T06:16:32.890Z,91.38
2023-04-12T06:18:59.710Z,91.47
2023-04-12T06:21:26.598Z,91.56
2023-04-12T06:23:53.225Z,91.68
2023-04-12T06:26:19.804Z,90.51
2023-04-12T06:28:46.454Z,89.64
2023-04-12T06:31:13.218Z,89.46
2023-04-12T06:33:39.719Z,88.85
2023-04-12T06:36:06.932Z,88.36
2023-04-12T06:38:33.758Z,87.83
2023-04-12T06:41:00.381Z,86.73
2023-04-12T06:43:26.871Z,87.00
2023-04-12T06:45:53.397Z,86.83
2023-04-12T06:48:19.976Z,86.65
2023-04-12T06:50:46.543Z,86.44
2023-04-12T06:53:15.744Z,85.54
2023-04-12T06:55:42.441Z,84.81
2023-04-12T06:58:09.079Z,83.24
2023-04-12T07:00:35.711Z,82.87
2023-04-12T07:03:02.324Z,83.16
2023-04-12T07:05:29.144Z,82.57
2023-04-12T07:07:55.684Z,82.50
2023-04-12T07:10:22.170Z,82.83
2023-04-12T07:12:49.310Z,81.37
2023-04-12T07:15:15.982Z,80.71
2023-04-12T07:17:42.597Z,79.04
2023-04-12T07:20:09.804Z,78.82
2023-04-12T07:22:36.393Z,78.28
2023-04-12T07:25:05.123Z,78.71
2023-04-12T07:27:31.691Z,78.09
2023-04-12T07:29:58.844Z,76.98
2023-04-12T07:32:25.657Z,74.58
2023-04-12T07:34:53.157Z,74.85
2023-04-12T07:37:20.414Z,74.80
2023-04-12T07:39:47.047Z,75.64
2023-04-12T07:42:13.668Z,76.14
2023-04-12T07:44:40.205Z,74.29
2023-04-12T07:47:07.354Z,75.00
2023-04-12T07:49:33.895Z,74.99
2023-04-12T07:52:00.441Z,74.84
2023-04-12T07:54:29.158Z,74.45
2023-04-12T07:56:59.768Z,75.13
2023-04-12T07:59:26.350Z,73.20
2023-04-12T08:01:53.095Z,74.51
2023-04-12T08:04:20.497Z,74.95
2023-04-12T08:06:47.131Z,73.94
2023-04-12T08:09:13.767Z,72.91
2023-04-12T08:11:40.332Z,72.93
2023-04-12T08:14:06.915Z,72.80
2023-04-12T08:16:33.505Z,71.96
2023-04-12T08:19:00.034Z,70.36
2023-04-12T08:21:27.715Z,69.08
2023-04-12T08:23:54.538Z,68.14
2023-04-12T08:26:21.220Z,65.31
2023-04-12T08:28:48.722Z,65.55
2023-04-12T08:31:15.844Z,64.69
2023-04-12T08:33:42.383Z,66.16
2023-04-12T08:36:09.488Z,67.00
2023-04-12T08:38:45.403Z,67.89
2023-04-12T08:41:14.015Z,66.40
2023-04-12T08:43:46.277Z,66.62
2023-04-12T08:46:15.890Z,67.20
2023-04-12T08:48:47.734Z,67.96
2023-04-12T08:51:20.421Z,66.55
2023-04-12T08:53:47.373Z,66.06
2023-04-12T08:56:14.853Z,65.81
2023-04-12T08:58:45.952Z,67.05
2023-04-12T09:01:14.871Z,67.55
2023-04-12T09:03:42.768Z,66.33
2023-04-12T09:06:09.800Z,66.89
2023-04-12T09:08:36.881Z,68.06
2023-04-12T09:11:21.409Z,66.50
2023-04-12T09:13:48.001Z,63.91
2023-04-12T09:16:14.588Z,59.46
2023-04-12T09:18:51.291Z,60.34
2023-04-12T09:21:18.499Z,61.55
2023-04-12T09:23:45.339Z,64.06
2023-04-12T09:26:28.980Z,62.08
2023-04-12T09:28:55.472Z,63.13
2023-04-12T09:31:22.196Z,63.14
2023-04-12T09:33:48.770Z,62.29
2023-04-12T09:36:17.416Z,62.93
2023-04-12T09:39:04.375Z,61.07
2023-04-12T09:41:32.059Z,57.35
2023-04-12T09:44:01.725Z,56.59
2023-04-12T09:46:28.551Z,58.63
2023-04-12T09:48:59.193Z,60.94
2023-04-12T09:51:33.486Z,58.20
2023-04-12T09:54:02.832Z,56.77
2023-04-12T09:56:32.434Z,54.82
2023-04-12T09:59:03.962Z,54.35
2023-04-12T10:01:36.820Z,53.07
2023-04-12T10:04:04.791Z,53.51
2023-04-12T10:06:33.074Z,50.88
2023-04-12T10:09:02.963Z,49.50
2023-04-12T10:11:29.587Z,52.62
2023-04-12T10:13:57.178Z,50.13
2023-04-12T10:16:24.219Z,49.20
2023-04-12T10:18:52.495Z,43.87
2023-04-12T10:21:19.029Z,45.98
2023-04-12T10:23:45.716Z,43.63
2023-04-12T10:26:12.440Z,46.10
2023-04-12T10:28:39.505Z,47.57
2023-04-12T10:31:29.803Z,45.28
2023-04-12T10:33:56.586Z,42.99
2023-04-12T10:36:57.703Z,41.80
2023-04-12T10:39:41.701Z,42.13
2023-04-12T10:42:29.607Z,44.73
2023-04-12T10:45:00.361Z,44.67
2023-04-12T10:47:49.516Z,44.02
2023-04-12T10:50:25.964Z,45.31
2023-04-12T10:53:15.319Z,46.14
2023-04-12T10:55:45.339Z,43.35
2023-04-12T10:58:50.165Z,44.50
2023-04-12T11:01:18.540Z,44.77
2023-04-12T11:04:17.569Z,44.96
2023-04-12T11:06:49.726Z,45.55
2023-04-12T11:09:25.245Z,46.67
2023-04-12T11:11:57.221Z,44.99
2023-04-12T11:14:27.741Z,45.51
2023-04-12T11:17:06.748Z,45.78
2023-04-12T11:19:37.457Z,40.41
2023-04-12T11:22:12.820Z,43.94
2023-04-12T11:24:46.767Z,42.78
2023-04-12T11:27:14.171Z,44.75
2023-04-12T11:29:40.726Z,45.38
2023-04-12T11:32:12.712Z,45.14
2023-04-12T11:34:39.850Z,44.15
2023-04-12T11:37:09.680Z,44.02
2023-04-12T11:39:38.935Z,44.99
2023-04-12T11:42:08.643Z,46.38
2023-04-12T11:44:52.447Z,47.14
2023-04-12T11:47:24.003Z,47.15
2023-04-12T11:49:58.403Z,48.25
2023-04-12T11:52:33.384Z,49.40
2023-04-12T11:55:06.600Z,51.69
2023-04-12T11:57:34.243Z,53.21
2023-04-12T12:00:01.398Z,54.83
2023-04-12T12:02:33.093Z,56.24
2023-04-12T12:05:03.626Z,60.91
2023-04-12T12:07:30.806Z,61.65
2023-04-12T12:09:57.605Z,67.07
2023-04-12T12:12:24.201Z,66.43
2023-04-12T12:14:50.861Z,68.96
2023-04-12T12:17:17.560Z,71.16
2023-04-12T12:19:46.024Z,69.03
2023-04-12T12:22:21.821Z,68.90
2023-04-12T12:24:56.827Z,70.07
2023-04-12T12:27:25.721Z,71.47
2023-04-12T12:29:55.119Z,70.10
2023-04-12T12:32:23.531Z,68.76
2023-04-12T12:34:57.974Z,69.57
2023-04-12T12:37:28.700Z,66.84
2023-04-12T12:40:13.756Z,62.18
2023-04-12T12:42:56.970Z,63.60
2023-04-12T12:45:27.605Z,62.77
2023-04-12T12:48:02.378Z,60.26
2023-04-12T12:50:31.341Z,58.62
2023-04-12T12:53:00.536Z,58.91
2023-04-12T12:55:27.908Z,61.47
2023-04-12T12:58:07.473Z,58.66
2023-04-12T13:00:35.460Z,59.64
2023-04-12T13:03:03.097Z,58.30
2023-04-12T13:05:30.037Z,59.65
2023-04-12T13:07:56.625Z,59.66
2023-04-12T13:10:23.823Z,60.69
2023-04-12T13:12:50.824Z,61.11
2023-04-12T13:15:22.865Z,63.32
2023-04-12T13:17:53.862Z,63.84
2023-04-12T13:20:21.203Z,63.79
2023-04-12T13:22:47.831Z,63.65
2023-04-12T13:25:14.414Z,63.07
2023-04-12T13:27:41.075Z,64.71
2023-04-12T13:30:08.467Z,64.50
2023-04-12T13:32:35.980Z,63.39
2023-04-12T13:35:03.698Z,63.48
2023-04-12T13:37:30.587Z,64.12
2023-04-12T13:39:57.112Z,65.04
2023-04-12T13:42:24.418Z,64.20
2023-04-12T13:44:50.951Z,65.85
2023-04-12T13:47:20.107Z,65.85
2023-04-12T13:49:46.624Z,64.19
2023-04-12T13:52:13.420Z,61.14
2023-04-12T13:54:41.040Z,58.92
2023-04-12T13:57:08.009Z,57.91
2023-04-12T13:59:34.587Z,57.16
2023-04-12T14:02:01.634Z,52.30
2023-04-12T14:04:29.471Z,53.07
2023-04-12T14:06:57.058Z,50.36
2023-04-12T14:09:25.667Z,50.04
2023-04-12T14:11:55.149Z,50.02
2023-04-12T14:14:22.483Z,50.40
2023-04-12T14:16:50.769Z,49.82
2023-04-12T14:19:17.316Z,48.91
2023-04-12T14:21:43.877Z,50.05
2023-04-12T14:24:10.470Z,50.86
2023-04-12T14:26:39.778Z,49.86
2023-04-12T14:29:06.855Z,52.26
2023-04-12T14:31:36.093Z,52.57
2023-04-12T14:34:03.678Z,52.06
2023-04-12T14:36:31.025Z,50.31
2023-04-12T14:38:58.147Z,50.80
2023-04-12T14:41:25.069Z,51.30
2023-04-12T14:43:51.823Z,51.15
2023-04-12T14:46:18.418Z,49.93
2023-04-12T14:48:44.959Z,51.53
2023-04-12T14:51:11.506Z,52.95
2023-04-12T14:53:38.069Z,53.02
2023-04-12T14:56:04.770Z,52.85
2023-04-12T14:58:31.729Z,49.97
2023-04-12T15:01:00.155Z,50.67
2023-04-12T15:03:29.990Z,48.29
2023-04-12T15:05:58.172Z,46.23
2023-04-12T15:08:24.702Z,46.48
2023-04-12T15:10:51.312Z,46.98
2023-04-12T15:13:18.972Z,46.68
2023-04-12T15:15:47.436Z,47.37
2023-04-12T15:18:14.500Z,45.81
2023-04-12T15:20:41.135Z,48.48
2023-04-12T15:23:07.668Z,50.41
2023-04-12T15:25:34.304Z,48.70
2023-04-12T15:28:01.433Z,47.06
2023-04-12T15:30:28.363Z,47.70
2023-04-12T15:32:54.893Z,48.05
2023-04-12T15:35:26.453Z,48.33
2023-04-12T15:37:55.081Z,50.47
2023-04-12T15:40:23.000Z,52.47
2023-04-12T15:42:49.732Z,53.42
2023-04-12T15:45:16.260Z,52.34
2023-04-12T15:47:42.875Z,50.88
2023-04-12T15:50:10.250Z,48.66
2023-04-12T15:52:36.921Z,48.35
2023-04-12T15:55:05.213Z,45.05
2023-04-12T15:57:32.355Z,44.41
2023-04-12T15:59:59.855Z,44.82
2023-04-12T16:02:26.974Z,45.45
2023-04-12T16:04:56.119Z,47.78
2023-04-12T16:07:22.822Z,49.92
2023-04-12T16:09:49.396Z,51.24
2023-04-12T16:12:16.034Z,52.10
2023-04-12T16:14:42.670Z,51.84
2023-04-12T16:17:09.294Z,48.95
2023-04-12T16:19:36.229Z,47.16
2023-04-12T16:22:03.734Z,45.50
2023-04-12T16:24:30.358Z,46.37
2023-04-12T16:26:57.504Z,45.19
2023-04-12T16:29:24.431Z,46.00
2023-04-12T16:31:52.222Z,44.97
2023-04-12T16:34:21.946Z,45.01
2023-04-12T16:36:49.001Z,44.01
2023-04-12T16:39:16.603Z,46.24
2023-04-12T16:41:44.074Z,46.47
2023-04-12T16:44:10.809Z,46.63
2023-04-12T16:46:37.694Z,45.21
2023-04-12T16:49:04.379Z,44.63
2023-04-12T16:54:17.579Z,45.04
2023-04-12T16:56:44.125Z,46.33
2023-04-12T16:59:10.622Z,46.46
2023-04-12T17:01:37.109Z,47.21
2023-04-12T17:04:03.829Z,49.86
2023-04-12T17:06:33.870Z,50.19
2023-04-12T17:09:00.871Z,51.80
2023-04-12T17:11:28.806Z,51.37
2023-04-12T17:13:55.491Z,48.84
2023-04-12T17:16:22.171Z,49.88
2023-04-12T17:18:48.756Z,49.54
2023-04-12T17:21:16.974Z,48.89
2023-04-12T17:23:43.836Z,48.50
2023-04-12T17:26:11.100Z,48.10
2023-04-12T17:28:39.894Z,47.87
2023-04-12T17:31:06.518Z,47.95
2023-04-12T17:33:33.569Z,49.10
2023-04-12T17:36:01.901Z,49.77
2023-04-12T17:38:28.255Z,50.11
2023-04-12T17:40:54.752Z,49.97
2023-04-12T17:43:21.239Z,50.32
2023-04-12T17:45:47.932Z,49.82
2023-04-12T17:48:15.325Z,48.61
2023-04-12T17:50:41.995Z,47.96
2023-04-12T17:53:08.575Z,48.63
2023-04-12T17:55:36.437Z,49.25
2023-04-12T17:58:03.400Z,50.28
2023-04-12T18:00:30.046Z,51.14
2023-04-12T18:02:56.990Z,50.86
2023-04-12T18:05:23.601Z,51.21
2023-04-12T18:07:50.149Z,50.88
2023-04-12T18:10:21.166Z,50.98
2023-04-12T18:12:48.400Z,50.98
2023-04-12T18:15:15.122Z,51.54
2023-04-12T18:17:41.766Z,51.80
2023-04-12T18:20:11.516Z,50.87
2023-04-12T18:22:38.662Z,50.56
2023-04-12T18:25:07.549Z,50.88
2023-04-12T18:27:34.027Z,50.45
2023-04-12T18:30:03.421Z,50.97
2023-04-12T18:32:30.035Z,51.52
2023-04-12T18:34:56.749Z,50.80
2023-04-12T18:37:23.277Z,50.84
2023-04-12T18:39:51.220Z,51.59
2023-04-12T18:42:19.654Z,51.00
2023-04-12T18:44:46.173Z,51.72
2023-04-12T18:47:12.723Z,51.45
2023-04-12T18:49:39.549Z,51.77
2023-04-12T18:52:06.040Z,52.07
2023-04-12T18:54:32.666Z,51.81
2023-04-12T18:57:01.840Z,51.86
2023-04-12T18:59:28.508Z,52.28
2023-04-12T19:01:55.141Z,52.50
2023-04-12T19:04:21.914Z,52.97
2023-04-12T19:06:48.446Z,53.12
2023-04-12T19:09:15.198Z,53.49
2023-04-12T19:11:41.673Z,53.78
2023-04-12T19:14:08.227Z,54.39
2023-04-12T19:16:35.268Z,54.75
2023-04-12T19:19:02.274Z,55.09
2023-04-12T19:21:29.206Z,55.29
2023-04-12T19:23:56.260Z,55.16
2023-04-12T19:26:23.414Z,55.80
2023-04-12T19:28:55.320Z,55.50
2023-04-12T19:31:22.104Z,56.14
2023-04-12T19:33:48.715Z,55.68
2023-04-12T19:36:15.471Z,55.48
2023-04-12T19:38:44.117Z,56.26
2023-04-12T19:41:10.854Z,55.88
2023-04-12T19:43:37.364Z,55.93
2023-04-12T19:46:04.066Z,55.46
2023-04-12T19:48:31.098Z,55.01
2023-04-12T19:50:58.023Z,55.02
2023-04-12T19:53:24.571Z,55.11
2023-04-12T19:55:52.449Z,55.75
2023-04-12T19:58:19.032Z,56.00
2023-04-12T20:00:51.863Z,56.13
2023-04-12T20:03:18.707Z,56.30
2023-04-12T20:05:46.075Z,56.78
2023-04-12T20:08:15.853Z,56.58
2023-04-12T20:10:42.854Z,57.41
2023-04-12T20:13:10.623Z,57.24
2023-04-12T20:15:38.960Z,57.00
2023-04-12T20:18:06.981Z,57.06
2023-04-12T20:20:33.551Z,56.91
2023-04-12T20:23:00.099Z,57.40
2023-04-12T20:25:27.300Z,57.68
2023-04-12T20:27:53.992Z,57.88
2023-04-12T20:30:21.232Z,57.68
2023-04-12T20:32:54.205Z,57.36
2023-04-12T20:35:21.827Z,57.18
2023-04-12T20:37:50.642Z,57.15
2023-04-12T20:40:17.959Z,57.57
2023-04-12T20:42:45.279Z,57.72
2023-04-12T20:45:11.974Z,57.73
2023-04-12T20:47:38.587Z,57.13
2023-04-12T20:50:05.930Z,58.89
2023-04-12T20:52:32.486Z,61.05
2023-04-12T20:54:59.014Z,61.32
2023-04-12T20:57:26.769Z,62.20
2023-04-12T20:59:53.335Z,61.90
2023-04-12T21:02:20.314Z,60.79
2023-04-12T21:04:47.209Z,60.92
2023-04-12T21:07:14.700Z,60.61
2023-04-12T21:09:41.271Z,61.20
2023-04-12T21:12:08.758Z,60.86
2023-04-12T21:14:37.802Z,61.19
2023-04-12T21:17:04.986Z,62.38
2023-04-12T21:19:31.830Z,64.35
2023-04-12T21:21:59.238Z,66.24
2023-04-12T21:24:26.121Z,68.62
2023-04-12T21:26:59.943Z,70.82
2023-04-12T21:29:26.512Z,73.31
2023-04-12T21:31:53.169Z,77.01
2023-04-12T21:34:21.761Z,80.84
2023-04-12T21:36:48.142Z,82.82
2023-04-12T21:39:14.775Z,83.80
2023-04-12T21:41:41.340Z,84.34
2023-04-12T21:44:07.917Z,85.49
2023-04-12T21:46:34.426Z,86.20
2023-04-12T21:49:01.009Z,87.41
2023-04-12T21:51:28.182Z,87.84
2023-04-12T21:53:54.627Z,88.45
2023-04-12T21:56:21.234Z,88.26
2023-04-12T21:58:47.793Z,88.55
2023-04-12T22:01:15.566Z,87.49
2023-04-12T22:03:43.639Z,85.63
2023-04-12T22:06:11.823Z,85.46
2023-04-12T22:08:42.675Z,85.55
2023-04-12T22:11:11.001Z,86.31
2023-04-12T22:13:46.083Z,86.71
2023-04-12T22:16:13.478Z,87.10
2023-04-12T22:18:41.101Z,87.08
2023-04-12T22:21:08.175Z,87.68
2023-04-12T22:23:38.770Z,87.74
2023-04-12T22:26:09.673Z,88.40
2023-04-12T22:28:38.116Z,88.55
2023-04-12T22:31:05.957Z,89.19
2023-04-12T22:33:32.620Z,88.79
2023-04-12T22:35:59.437Z,88.79
2023-04-12T22:38:26.050Z,87.93
2023-04-12T22:40:54.908Z,88.23
2023-04-12T22:43:22.797Z,87.82
2023-04-12T22:45:49.370Z,87.85
2023-04-12T22:48:15.928Z,88.18
2023-04-12T22:50:42.978Z,87.31
2023-04-12T22:53:11.231Z,87.33
2023-04-12T22:55:38.846Z,87.89
2023-04-12T22:58:07.188Z,86.69
2023-04-12T23:00:36.922Z,86.81
2023-04-12T23:03:04.214Z,85.74
2023-04-12T23:05:30.914Z,85.58
2023-04-12T23:07:57.589Z,86.33
2023-04-12T23:10:24.075Z,86.79
2023-04-12T23:12:54.671Z,86.99
2023-04-12T23:15:21.254Z,86.38
2023-04-12T23:17:49.973Z,86.43
2023-04-12T23:20:17.108Z,86.39
2023-04-12T23:22:56.644Z,86.73
2023-04-12T23:25:37.829Z,86.50
2023-04-12T23:28:07.836Z,86.14
2023-04-12T23:30:34.364Z,86.48
2023-04-12T23:33:01.119Z,86.73
2023-04-12T23:35:27.893Z,87.55
2023-04-12T23:37:54.413Z,88.03
2023-04-12T23:40:20.925Z,88.23
2023-04-12T23:42:48.535Z,88.99
2023-04-12T23:45:15.083Z,89.23
2023-04-12T23:47:41.852Z,89.20
2023-04-12T23:50:09.176Z,89.69
2023-04-12T23:52:35.922Z,90.71
2023-04-12T23:55:03.044Z,91.09
2023-04-12T23:57:29.704Z,91.81
2023-04-12T23:59:56.633Z,92.07
